Darien Center, New York
Current Conditions -  °F | °C
As of 1:13 PM on Thursday 18 Dec 2014 (Local Time) from KBUF Reporting Station
Light Snow Light Snow  
Wind Chill: 21°   Ceiling: 1500
Heat Index: 31°   Visibility: 10mi
Dew Point: 26°   Wind: 13mph
Humidity: 82%   Direction: 260°W
Pressure: 30.06"   Gusts: NA
Location:  42.9°N, 78.39°W
Report Text: KBUF 181813Z 26011KT 10SM -SN FEW010 OVC015 M01/M03 A3006 RMK AO2 FZDZE10 PCPN VRY LGT P0000 I1000 T10061033
Loading
Personal Weather Stations






























Interactive Weather Map New forecast layout! Learn more

10-Day Weather Forecast

Advertisements
Track Severe Weather on mobile